CST,Max TemperatureF,Mean TemperatureF,Min TemperatureF,Max Dew PointF,MeanDew PointF,Min DewpointF,Max Humidity, Mean Humidity, Min Humidity, Max Sea Level PressureIn, Mean Sea Level PressureIn, Min Sea Level PressureIn, Max VisibilityMiles, Mean VisibilityMiles, Min VisibilityMiles, Max Wind SpeedMPH, Mean Wind SpeedMPH, Max Gust SpeedMPH,PrecipitationIn, CloudCover, Events, WindDirDegrees
2013-2-1,28,12,-3,20,6,-10,78,70,61,30.39,30.18,30.02,10,10,10,24,10,29,0.00,5,,186
2013-2-2,37,30,24,30,23,18,85,77,71,30.17,30.09,30.03,10,10,7,17,7,22,0.00,6,Snow,283
2013-2-3,41,30,18,30,24,14,80,69,55,30.19,30.02,29.76,10,10,10,23,13,28,0.00,1,,224
2013-2-4,38,30,23,30,22,19,92,82,72,30.01,29.91,29.75,10,9,7,22,10,31,0.00,7,,294
2013-2-5,49,38,27,32,28,24,92,69,42,30.06,29.93,29.80,10,9,4,21,10,25,0.00,2,,303
2013-2-6,49,40,32,36,32,27,83,71,56,30.06,29.92,29.83,10,10,10,23,10,31,0.00,2,,129
2013-2-7,40,35,29,35,29,24,92,81,75,30.23,30.05,29.87,10,8,2,23,13,30,0.00,7,Thunderstorm,344
2013-2-8,34,30,26,27,25,23,90,84,72,30.32,30.23,30.12,10,8,4,16,8,18,0.00,5,,116
2013-2-9,49,39,29,36,32,27,93,78,60,30.13,29.91,29.66,10,7,3,25,17,30,0.00,5,Thunderstorm,146
2013-2-10,46,38,30,43,33,23,97,83,69,29.77,29.44,29.25,10,8,2,31,18,40,0.01,8,Rain-Snow-Thunderstorm,199
2013-2-11,33,27,21,25,22,19,89,74,64,30.13,30.03,29.78,10,10,10,24,16,37,0.01,5,,293
2013-2-12,48,34,20,26,22,16,93,67,31,30.13,29.99,29.88,10,10,7,17,6,23,0.00,0,,228
2013-2-13,53,39,25,31,26,21,84,63,35,29.89,29.79,29.71,10,10,10,22,7,26,0.00,2,,246
2013-2-14,43,32,21,32,27,14,93,72,45,30.26,29.99,29.78,10,9,1,25,11,33,0.00,4,Snow,306
2013-2-15,31,22,13,24,16,10,92,75,52,30.33,30.30,30.27,10,9,0,14,8,17,0.00,4,Snow,319
2013-2-16,32,20,8,25,18,5,91,80,71,30.31,30.12,29.99,10,10,1,13,6,,0.00,4,,172
2013-2-17,53,38,23,34,27,19,83,66,48,29.98,29.78,29.55,10,10,10,21,11,26,0.00,0,,146
2013-2-18,44,32,20,32,24,13,92,72,58,30.04,29.77,29.54,10,10,0,29,15,43,0.00,3,Snow,321
2013-2-19,25,17,8,12,3,-3,76,59,31,30.35,30.24,30.05,10,10,10,24,17,31,0.00,1,,319
2013-2-20,25,14,4,8,3,-3,76,58,41,30.36,30.28,30.18,10,10,10,15,9,16,0.00,4,,69
2013-2-21,26,23,20,21,15,7,91,73,52,30.22,30.00,29.82,10,6,0,21,14,29,0.01,8,Snow,56
2013-2-22,23,16,9,18,14,7,90,81,70,30.00,29.92,29.82,10,9,1,16,10,20,0.05,3,Snow,301
2013-2-23,35,20,5,26,16,2,91,80,64,29.98,29.88,29.80,10,8,2,15,7,,0.00,0,Snow,184
2013-2-24,38,30,21,28,24,19,91,79,61,30.06,29.96,29.86,10,7,4,13,7,,0.00,5,,165
2013-2-25,33,29,25,28,26,24,95,89,78,30.07,30.00,29.90,5,3,0,17,10,22,0.00,6,Fog,4
2013-2-26,32,28,25,29,26,24,94,90,84,29.91,29.84,29.76,5,2,0,22,13,25,0.00,8,Fog-Snow,347
2013-2-27,36,30,24,27,23,19,89,77,61,30.08,29.96,29.87,10,8,4,29,16,39,0.00,4,,318
2013-2-28,31,28,25,24,23,21,83,80,72,30.21,30.16,30.08,10,10,10,22,16,30,0.00,8,,320